Time;durP1;ratioP1;P1;durP2;ratioP2;P2;SDS_P1;SDS_P2;PMS_P1;PMS_P2;Temp;Humidity;BMP_temperature;BMP_pressure;BME280_temperature;BME280_humidity;BME280_pressure;Samples;Min_cycle;Max_cycle;Signal;HPM_P1;HPM_P2
2023/05/23 00:00:25;;;;;;;;;;;21.10;34.60;;;20.46;33.31;100822.84;12262177;19;19919;-86
2023/05/23 00:04:27;;;;;;;;;;;21.20;34.30;;;20.41;33.57;100827.75;12266274;19;19914;-86
2023/05/23 00:08:28;;;;;;;;;;;21.10;34.20;;;20.28;33.43;100806.88;12267618;19;19955;-86
2023/05/23 00:12:32;;;;;;;;;;;21.00;34.30;;;20.23;33.72;100815.28;12266681;19;19914;-86
2023/05/23 00:16:33;;;;;;;;;;;20.90;34.20;;;20.11;33.72;100817.25;12266719;19;19915;-86
2023/05/23 00:20:40;;;;;;;;;;;20.90;34.30;;;20.06;33.75;100823.97;12261758;19;19985;-86
2023/05/23 00:24:42;;;;;;;;;;;20.80;34.40;;;20.01;33.60;100815.59;12265742;19;19940;-87
2023/05/23 00:28:44;;;;;;;;;;;20.80;34.50;;;20.14;33.63;100818.78;12267185;19;20319;-86
2023/05/23 00:32:45;;;;;;;;;;;20.80;34.60;;;20.11;33.77;100824.38;12267110;19;19907;-86
2023/05/23 00:36:49;;;;;;;;;;;20.80;34.60;;;20.02;34.04;100814.66;12260854;19;19967;-86
2023/05/23 00:40:51;;;;;;;;;;;20.80;34.60;;;19.77;33.80;100774.53;12262390;19;19923;-86
2023/05/23 00:44:53;;;;;;;;;;;20.70;34.50;;;19.96;33.90;100813.41;12265075;19;20372;-86
2023/05/23 00:48:55;;;;;;;;;;;20.70;34.60;;;19.85;33.90;100806.47;12267945;19;19918;-86
2023/05/23 00:52:57;;;;;;;;;;;20.60;34.60;;;19.64;34.03;100768.69;12266515;19;19946;-86
2023/05/23 00:57:00;;;;;;;;;;;20.60;34.60;;;19.69;34.05;100785.00;12264550;19;19918;-86
2023/05/23 01:01:01;;;;;;;;;;;20.50;34.50;;;19.61;34.13;100783.03;12267857;19;19919;-86
2023/05/23 01:05:03;;;;;;;;;;;20.50;34.70;;;19.54;33.96;100775.78;12265386;19;19974;-86
2023/05/23 01:09:05;;;;;;;;;;;20.30;35.00;;;19.48;33.98;100779.84;12270695;19;19915;-86
2023/05/23 01:13:20;;;;;;;;;;;20.30;34.80;;;19.41;34.12;100762.84;12267216;19;19915;-85
2023/05/23 01:17:44;;;;;;;;;;;20.20;34.70;;;19.37;34.16;100778.19;12267459;19;19918;-86
2023/05/23 01:21:51;;;;;;;;;;;20.20;34.70;;;19.29;34.34;100764.81;12268599;19;19932;-86
2023/05/23 01:26:31;;;;;;;;;;;20.10;34.80;;;19.28;34.44;100765.81;12261952;19;19915;-86
2023/05/23 01:30:38;;;;;;;;;;;20.00;34.90;;;19.25;34.20;100768.69;12263083;19;19922;-86
2023/05/23 01:34:40;;;;;;;;;;;20.00;35.00;;;19.21;34.31;100759.38;12264870;19;19915;-87
2023/05/23 01:38:41;;;;;;;;;;;19.90;35.00;;;19.11;34.49;100755.91;12264057;19;19959;-86
2023/05/23 01:42:43;;;;;;;;;;;19.90;35.00;;;19.08;34.43;100745.59;12266502;19;19944;-86
2023/05/23 01:46:45;;;;;;;;;;;19.90;35.00;;;19.09;34.71;100747.25;12261880;19;19919;-87
2023/05/23 01:50:47;;;;;;;;;;;19.90;35.10;;;18.95;34.47;100712.28;12262965;19;19923;-84
2023/05/23 01:54:50;;;;;;;;;;;19.90;35.10;;;18.93;34.63;100711.59;12265055;19;19929;-87
2023/05/23 01:58:53;;;;;;;;;;;20.00;35.20;;;19.14;34.83;100742.38;12264145;19;19927;-87
2023/05/23 02:02:55;;;;;;;;;;;20.00;35.20;;;19.15;34.55;100734.31;12264703;19;20315;-86
2023/05/23 02:06:57;;;;;;;;;;;20.00;35.20;;;19.05;34.81;100708.81;12261654;19;19911;-86
2023/05/23 02:10:59;;;;;;;;;;;19.90;35.60;;;19.14;35.00;100737.06;12267589;19;20287;-86
2023/05/23 02:15:00;;;;;;;;;;;19.90;35.40;;;18.83;34.88;100686.94;12260777;19;19923;-86
2023/05/23 02:19:02;;;;;;;;;;;20.00;35.30;;;19.18;34.67;100735.84;12262277;19;19911;-86
2023/05/23 02:23:04;;;;;;;;;;;20.00;35.40;;;19.11;35.12;100721.47;12262901;19;20346;-86
2023/05/23 02:27:06;;;;;;;;;;;20.00;35.30;;;19.18;35.16;100735.84;12260098;19;19929;-86
2023/05/23 02:31:07;;;;;;;;;;;20.00;35.40;;;19.15;34.89;100736.13;12265454;19;19907;-86
2023/05/23 02:35:09;;;;;;;;;;;20.00;35.40;;;19.13;34.76;100728.31;12261632;19;19926;-87
2023/05/23 02:39:11;;;;;;;;;;;20.10;35.40;;;19.11;34.86;100711.72;12263009;19;19914;-86
2023/05/23 02:43:14;;;;;;;;;;;20.10;35.40;;;19.26;35.11;100732.50;12264181;19;19918;-86
2023/05/23 02:47:16;;;;;;;;;;;20.10;35.30;;;19.13;34.86;100706.31;12259075;19;19922;-86
2023/05/23 02:51:17;;;;;;;;;;;20.10;35.40;;;19.09;34.94;100695.16;12258096;19;20265;-86
2023/05/23 02:55:19;;;;;;;;;;;20.10;35.40;;;19.25;35.10;100721.03;12259807;19;19919;-86
2023/05/23 02:59:23;;;;;;;;;;;20.10;35.50;;;19.00;35.15;100685.41;12258566;19;19947;-86
2023/05/23 03:03:24;;;;;;;;;;;20.10;35.40;;;19.07;35.34;100698.94;12255682;19;19919;-86
2023/05/23 03:07:26;;;;;;;;;;;20.10;35.40;;;19.25;35.21;100728.97;12259384;19;19927;-86
2023/05/23 03:11:28;;;;;;;;;;;20.10;35.50;;;19.17;35.34;100705.03;12262732;19;19911;-86
2023/05/23 03:15:30;;;;;;;;;;;20.10;35.80;;;19.21;35.15;100714.38;12256956;19;19922;-85
2023/05/23 03:19:32;;;;;;;;;;;20.10;35.50;;;19.18;35.49;100706.72;12258218;19;19928;-86
2023/05/23 03:23:35;;;;;;;;;;;20.10;35.50;;;19.22;35.30;100721.31;12261082;19;19919;-86
2023/05/23 03:27:37;;;;;;;;;;;20.10;35.60;;;19.22;35.20;100732.75;12259149;19;20297;-86
2023/05/23 03:31:39;;;;;;;;;;;20.10;35.60;;;19.18;35.42;100725.25;12260274;19;19915;-86
2023/05/23 03:35:41;;;;;;;;;;;20.10;35.60;;;19.05;35.52;100714.09;12256717;19;19918;-86
2023/05/23 03:39:43;;;;;;;;;;;20.10;35.60;;;19.11;35.38;100724.97;12256469;19;19919;-86
2023/05/23 03:43:44;;;;;;;;;;;20.10;35.70;;;18.94;35.55;100686.81;12256110;19;19911;-86
2023/05/23 03:47:47;;;;;;;;;;;20.10;36.10;;;19.28;35.38;100727.88;12260571;19;20361;-86
2023/05/23 03:51:49;;;;;;;;;;;20.10;35.70;;;19.14;35.66;100713.25;12256864;19;19944;-87
2023/05/23 03:55:52;;;;;;;;;;;20.10;35.80;;;19.11;35.46;100695.00;12252460;19;20393;-86
2023/05/23 03:59:54;;;;;;;;;;;20.20;35.80;;;19.25;35.41;100715.75;12251720;19;19949;-86
2023/05/23 04:03:56;;;;;;;;;;;20.20;35.80;;;19.30;35.51;100726.75;12254749;19;19919;-86
2023/05/23 04:08:01;;;;;;;;;;;20.20;35.80;;;19.27;35.81;100716.44;12259322;19;19929;-85
2023/05/23 04:12:03;;;;;;;;;;;20.10;35.80;;;19.13;35.78;100690.41;12253650;19;19923;-86
2023/05/23 04:16:05;;;;;;;;;;;20.20;35.90;;;19.26;35.74;100717.44;12252380;19;20002;-86
2023/05/23 04:20:11;;;;;;;;;;;20.20;36.00;;;19.22;35.80;100710.72;12253053;19;19930;-85
2023/05/23 04:24:12;;;;;;;;;;;20.10;35.90;;;19.14;35.89;100702.66;12253005;19;20685;-85
2023/05/23 04:28:16;;;;;;;;;;;20.10;36.10;;;19.16;35.92;100713.97;12254820;19;19940;-86
2023/05/23 04:32:21;;;;;;;;;;;20.10;36.00;;;19.13;35.81;100724.84;12253187;19;19915;-86
2023/05/23 04:36:24;;;;;;;;;;;20.00;36.00;;;19.10;36.06;100725.13;12253083;19;19906;-86
2023/05/23 04:40:29;;;;;;;;;;;20.10;36.10;;;19.15;36.16;100720.25;12257983;19;19994;-86
2023/05/23 04:44:42;;;;;;;;;;;20.10;36.20;;;19.11;35.96;100705.59;12265462;19;19926;-86
2023/05/23 04:48:53;;;;;;;;;;;20.10;36.20;;;19.15;35.91;100710.47;12261851;19;19930;-85
2023/05/23 04:52:55;;;;;;;;;;;20.10;36.20;;;19.21;35.93;100723.16;12267551;19;19911;-86
2023/05/23 04:56:57;;;;;;;;;;;20.10;36.10;;;19.23;35.82;100707.13;12261021;19;19918;-86
2023/05/23 05:01:00;;;;;;;;;;;20.10;36.30;;;19.18;36.21;100691.66;12257004;19;20324;-86
2023/05/23 05:05:03;;;;;;;;;;;20.20;36.40;;;19.17;36.17;100692.66;12261928;19;19954;-87
2023/05/23 05:09:05;;;;;;;;;;;20.20;36.40;;;19.21;36.20;100703.78;12265603;19;19919;-85
2023/05/23 05:13:06;;;;;;;;;;;20.20;36.30;;;19.24;35.94;100703.50;12265649;19;19933;-86
2023/05/23 05:17:18;;;;;;;;;;;20.10;36.50;;;19.14;36.25;100689.44;12258401;19;19918;-86
2023/05/23 05:21:36;;;;;;;;;;;20.20;36.60;;;19.22;36.07;100708.91;12264100;19;20277;-86
2023/05/23 05:25:40;;;;;;;;;;;20.10;36.40;;;19.27;36.08;100711.16;12263187;19;20349;-86
2023/05/23 05:29:42;;;;;;;;;;;20.10;36.50;;;19.04;36.35;100670.06;12261904;19;19983;-86
2023/05/23 05:33:45;;;;;;;;;;;20.20;36.90;;;19.32;36.20;100706.28;12259885;19;19923;-86
2023/05/23 05:37:49;;;;;;;;;;;20.20;36.70;;;19.20;36.50;100700.31;12260746;19;19986;-88
2023/05/23 05:41:51;;;;;;;;;;;20.20;36.80;;;19.24;36.34;100714.91;12264768;19;20276;-86
2023/05/23 05:45:52;;;;;;;;;;;20.10;36.90;;;19.16;36.42;100708.66;12256746;19;19914;-85
2023/05/23 05:49:54;;;;;;;;;;;20.10;37.30;;;19.23;36.33;100729.16;12255945;19;19974;-85
2023/05/23 05:53:57;;;;;;;;;;;20.10;37.00;;;19.16;36.63;100730.66;12251983;19;20265;-85
2023/05/23 05:57:59;;;;;;;;;;;20.10;37.10;;;19.25;36.65;100736.94;12256229;19;20330;-84
2023/05/23 06:02:02;;;;;;;;;;;20.10;37.20;;;19.30;36.52;100745.28;12252657;19;19922;-85
2023/05/23 06:06:05;;;;;;;;;;;20.10;37.30;;;19.24;36.74;100737.91;12251190;19;19922;-84
2023/05/23 06:10:07;;;;;;;;;;;20.20;37.40;;;19.32;36.72;100745.16;12255346;19;20276;-84
2023/05/23 06:14:09;;;;;;;;;;;20.20;37.30;;;19.32;36.89;100738.03;12254832;19;19941;-84
2023/05/23 06:18:13;;;;;;;;;;;20.20;37.40;;;19.23;36.57;100718.56;12263809;19;19951;-85
2023/05/23 06:22:15;;;;;;;;;;;20.20;37.60;;;19.24;36.83;100719.38;12264477;19;19915;-84
2023/05/23 06:26:16;;;;;;;;;;;20.20;37.70;;;19.19;36.82;100716.31;12256546;19;20338;-85
2023/05/23 06:30:18;;;;;;;;;;;20.20;37.90;;;19.15;36.96;100709.66;12258761;19;20276;-84
2023/05/23 06:34:20;;;;;;;;;;;20.20;38.40;;;19.10;36.93;100703.94;12256762;19;19923;-84
2023/05/23 06:38:21;;;;;;;;;;;20.10;38.20;;;19.15;36.91;100712.28;12261214;19;19915;-84
2023/05/23 06:42:23;;;;;;;;;;;20.10;38.10;;;19.12;37.18;100709.91;12261657;19;19915;-85
2023/05/23 06:46:45;;;;;;;;;;;20.00;38.00;;;19.11;37.10;100708.25;12259625;19;19923;-84
2023/05/23 06:50:47;;;;;;;;;;;20.00;38.40;;;19.14;37.17;100707.97;12260910;19;19947;-84
2023/05/23 06:54:50;;;;;;;;;;;20.00;38.20;;;19.20;37.37;100723.31;12260200;19;19944;-84
2023/05/23 06:58:54;;;;;;;;;;;20.00;38.30;;;19.17;37.17;100720.91;12260400;19;19974;-85
2023/05/23 07:03:00;;;;;;;;;;;20.10;38.10;;;19.27;37.67;100729.69;12254209;19;19918;-84
2023/05/23 07:07:02;;;;;;;;;;;20.10;38.10;;;19.29;37.39;100732.22;12251620;19;19915;-84
2023/05/23 07:11:07;;;;;;;;;;;20.10;38.10;;;19.18;37.32;100696.97;12257216;19;19950;-84
2023/05/23 07:15:18;;;;;;;;;;;20.20;38.20;;;19.29;37.57;100711.03;12257393;19;19944;-85
2023/05/23 07:19:39;;;;;;;;;;;20.20;38.20;;;19.36;37.41;100715.63;12257089;19;19915;-84
2023/05/23 07:23:41;;;;;;;;;;;20.20;38.10;;;19.35;37.71;100695.38;12255997;19;19941;-84
2023/05/23 07:27:43;;;;;;;;;;;20.30;38.00;;;19.38;37.58;100695.09;12258835;19;19936;-84
2023/05/23 07:31:44;;;;;;;;;;;20.40;38.00;;;19.57;37.84;100723.34;12254330;19;19994;-89
2023/05/23 07:35:48;;;;;;;;;;;20.50;38.10;;;19.49;37.67;100695.91;12238106;19;19914;-89
2023/05/23 07:39:50;;;;;;;;;;;20.50;38.10;;;19.71;37.85;100708.84;12241465;19;19927;-89
2023/05/23 07:43:52;;;;;;;;;;;20.70;38.40;;;19.84;37.88;100727.09;12246164;19;19919;-90
2023/05/23 07:47:53;;;;;;;;;;;20.80;38.30;;;19.77;37.85;100687.09;12245556;19;19922;-89
2023/05/23 07:51:55;;;;;;;;;;;20.90;38.30;;;20.01;37.67;100704.28;12248866;19;19914;-89
2023/05/23 07:55:57;;;;;;;;;;;21.00;38.60;;;20.18;37.96;100714.13;12243022;19;19944;-87
2023/05/23 08:00:03;;;;;;;;;;;21.10;38.20;;;20.31;37.85;100708.47;12244008;19;20322;-89
2023/05/23 08:04:17;;;;;;;;;;;21.30;38.20;;;20.43;38.19;100711.75;12246024;19;20970;-88
2023/05/23 08:08:24;;;;;;;;;;;21.40;38.10;;;20.46;37.88;100706.97;12247603;19;20284;-89
2023/05/23 08:12:26;;;;;;;;;;;21.50;38.10;;;20.64;38.04;100720.28;12247686;19;19951;-90
2023/05/23 08:16:36;;;;;;;;;;;21.60;38.00;;;20.70;38.04;100708.25;12250601;19;19926;-91
2023/05/23 08:20:40;;;;;;;;;;;21.80;38.40;;;20.89;38.31;100702.78;12252670;19;19927;-90
2023/05/23 08:24:41;;;;;;;;;;;21.90;38.20;;;21.12;38.28;100720.91;12256290;19;19918;-90
2023/05/23 08:28:43;;;;;;;;;;;22.10;38.40;;;21.08;37.81;100690.31;12257829;19;19929;-90
2023/05/23 08:32:45;;;;;;;;;;;22.40;38.30;;;21.42;38.20;100733.78;12259655;19;19919;-90
2023/05/23 08:36:46;;;;;;;;;;;22.50;38.20;;;21.44;37.95;100701.72;12249788;19;19934;-89
2023/05/23 08:40:53;;;;;;;;;;;22.70;38.20;;;21.75;38.26;100731.34;12254297;19;19919;-89
2023/05/23 08:44:57;;;;;;;;;;;22.90;38.10;;;21.91;38.17;100735.09;12256949;19;20329;-90
2023/05/23 08:48:59;;;;;;;;;;;23.00;38.00;;;22.11;38.19;100739.16;12258655;19;20333;-90
2023/05/23 08:53:03;;;;;;;;;;;23.20;38.10;;;22.35;38.21;100741.13;12256880;19;19944;-89
2023/05/23 08:57:06;;;;;;;;;;;23.40;38.10;;;22.40;37.99;100725.50;12253883;19;19915;-89
2023/05/23 09:01:17;;;;;;;;;;;23.70;38.00;;;22.56;38.31;100722.06;12255742;19;20337;-89
2023/05/23 09:05:19;;;;;;;;;;;23.90;37.80;;;22.98;38.42;100747.78;12256449;19;19918;-89
2023/05/23 09:09:21;;;;;;;;;;;24.20;37.70;;;23.03;38.44;100732.13;12255040;19;19910;-90
2023/05/23 09:13:24;;;;;;;;;;;24.60;37.70;;;23.35;37.89;100760.59;12255647;19;19911;-89
2023/05/23 09:17:35;;;;;;;;;;;24.60;37.40;;;23.50;38.32;100763.44;12253449;19;19915;-91
2023/05/23 09:21:40;;;;;;;;;;;24.70;37.30;;;23.63;37.84;100761.09;12254225;19;19938;-86
2023/05/23 09:25:49;;;;;;;;;;;24.80;37.10;;;23.75;37.88;100766.09;12249425;19;19926;-90
2023/05/23 09:29:52;;;;;;;;;;;24.90;37.00;;;23.68;37.78;100728.56;12256583;19;19932;-89
2023/05/23 09:33:54;;;;;;;;;;;25.10;36.90;;;23.93;37.96;100755.22;12252059;19;19936;-88
2023/05/23 09:38:00;;;;;;;;;;;25.10;37.00;;;24.15;37.93;100762.50;12252338;19;19944;-87
2023/05/23 09:42:03;;;;;;;;;;;25.30;37.00;;;24.25;38.04;100749.78;12253789;19;19952;-90
2023/05/23 09:46:12;;;;;;;;;;;25.40;37.00;;;24.46;37.75;100762.53;12251361;19;19914;-90
2023/05/23 09:50:13;;;;;;;;;;;25.60;37.10;;;24.60;37.47;100763.66;12254587;19;19910;-89
2023/05/23 09:54:15;;;;;;;;;;;25.80;37.00;;;24.70;37.47;100766.91;12250634;19;19923;-91
2023/05/23 09:58:18;;;;;;;;;;;25.90;37.10;;;24.69;37.88;100738.56;12253157;19;20330;-90
2023/05/23 10:03:01;;;;;;;;;;;26.00;37.00;;;24.93;37.57;100747.41;12253693;19;19907;-91
2023/05/23 10:07:09;;;;;;;;;;;26.20;37.20;;;25.06;37.83;100742.31;12250355;19;19945;-90
2023/05/23 10:11:17;;;;;;;;;;;26.30;37.20;;;25.35;37.50;100762.13;12254291;19;19915;-91
2023/05/23 10:15:19;;;;;;;;;;;26.50;37.30;;;25.40;37.71;100738.34;12252107;19;19919;-91
2023/05/23 10:19:26;;;;;;;;;;;26.60;37.30;;;25.32;37.66;100699.16;12251152;19;19911;-91
2023/05/23 10:23:28;;;;;;;;;;;26.80;37.40;;;25.70;37.50;100747.25;12254954;19;19923;-90
2023/05/23 10:27:30;;;;;;;;;;;26.90;37.40;;;25.59;37.24;100724.47;12246797;19;19915;-89
2023/05/23 10:31:32;;;;;;;;;;;27.00;37.40;;;25.83;37.79;100750.16;12250485;19;19919;-90
2023/05/23 10:35:57;;;;;;;;;;;27.00;37.20;;;25.90;37.62;100744.91;12246667;19;19970;-91
2023/05/23 10:40:07;;;;;;;;;;;27.10;37.20;;;26.04;37.50;100762.81;12247580;19;19927;-91
2023/05/23 10:44:32;;;;;;;;;;;27.20;37.10;;;26.15;37.13;100764.19;12249595;19;19919;-90
2023/05/23 10:48:39;;;;;;;;;;;27.20;37.10;;;26.04;37.23;100746.75;12249626;19;20002;-90
2023/05/23 10:52:41;;;;;;;;;;;27.30;37.10;;;26.14;37.46;100754.50;12250233;19;19988;-89
2023/05/23 10:56:42;;;;;;;;;;;27.30;37.20;;;26.23;37.41;100758.72;12248109;19;19914;-90
2023/05/23 11:00:55;;;;;;;;;;;27.30;37.30;;;26.14;37.38;100735.75;12246064;19;20333;-90
2023/05/23 11:05:23;;;;;;;;;;;27.40;37.40;;;26.47;37.34;100770.97;12250175;19;20352;-90
2023/05/23 11:09:24;;;;;;;;;;;27.40;37.30;;;26.26;37.49;100738.78;12250889;19;19926;-90
2023/05/23 11:13:51;;;;;;;;;;;27.50;37.40;;;26.52;37.22;100782.97;12237933;19;19953;-89
2023/05/23 11:17:55;;;;;;;;;;;27.50;37.40;;;26.38;37.21;100777.47;12250143;19;19960;-89
2023/05/23 11:22:01;;;;;;;;;;;27.50;37.20;;;26.31;37.01;100789.09;12252519;19;19918;-90
2023/05/23 11:26:02;;;;;;;;;;;27.40;37.40;;;26.01;37.19;100773.06;12247562;19;20351;-90
2023/05/23 11:30:07;;;;;;;;;;;27.30;37.40;;;26.05;37.48;100790.38;12253282;19;20004;-90
2023/05/23 11:34:10;;;;;;;;;;;27.10;37.50;;;25.93;37.13;100783.84;12250854;19;19942;-90
2023/05/23 11:38:16;;;;;;;;;;;27.00;37.70;;;25.73;37.48;100754.09;12248207;19;20401;-88
2023/05/23 11:42:17;;;;;;;;;;;26.90;38.00;;;25.87;37.19;100782.75;12249700;19;20009;-89
2023/05/23 11:46:19;;;;;;;;;;;26.80;38.30;;;25.85;37.52;100779.41;12249336;19;20350;-88
2023/05/23 11:50:21;;;;;;;;;;;26.80;38.10;;;25.72;37.14;100771.97;12258582;19;19927;-89
2023/05/23 11:54:26;;;;;;;;;;;26.70;38.10;;;25.68;37.33;100775.19;12260462;19;19915;-89
2023/05/23 11:58:33;;;;;;;;;;;26.70;38.80;;;25.72;37.59;100797.91;12260353;19;20252;-90
2023/05/23 12:02:41;;;;;;;;;;;26.60;38.20;;;25.39;37.24;100756.25;12264559;19;19931;-89
2023/05/23 12:06:47;;;;;;;;;;;26.60;38.30;;;25.42;37.63;100800.53;12258571;19;19966;-89
2023/05/23 12:11:00;;;;;;;;;;;26.40;38.20;;;25.35;37.33;100787.03;12261951;19;20500;-89
2023/05/23 12:15:02;;;;;;;;;;;26.30;38.10;;;25.38;37.68;100809.91;12253980;19;20025;-89
2023/05/23 12:19:04;;;;;;;;;;;26.20;38.50;;;25.26;37.53;100812.16;12256952;19;20321;-89
2023/05/23 12:23:06;;;;;;;;;;;26.20;38.40;;;25.13;37.48;100820.75;12258314;19;19922;-88
2023/05/23 12:27:09;;;;;;;;;;;26.00;38.80;;;24.79;37.37;100801.59;12256341;19;19936;-89
2023/05/23 12:31:19;;;;;;;;;;;25.90;38.30;;;24.84;37.85;100817.91;12258951;19;19951;-89
2023/05/23 12:35:24;;;;;;;;;;;25.70;38.30;;;24.65;37.99;100792.47;12258120;19;19933;-90
2023/05/23 12:39:29;;;;;;;;;;;25.60;38.80;;;24.80;37.75;100827.31;12254642;19;20326;-89
2023/05/23 12:43:30;;;;;;;;;;;25.60;38.70;;;24.73;38.03;100824.50;12257992;19;19919;-89
2023/05/23 12:47:32;;;;;;;;;;;25.60;38.80;;;24.39;37.86;100780.25;12253791;19;19918;-89
2023/05/23 12:51:33;;;;;;;;;;;25.50;39.20;;;24.48;37.83;100792.56;12256016;19;19931;-90
2023/05/23 12:55:34;;;;;;;;;;;25.40;38.80;;;24.43;38.04;100799.41;12246575;19;20250;-90
2023/05/23 12:59:36;;;;;;;;;;;25.40;39.10;;;24.63;38.18;100829.25;12254156;19;19940;-91
2023/05/23 13:03:37;;;;;;;;;;;25.40;39.10;;;24.54;37.80;100817.75;12255498;19;19952;-90
2023/05/23 13:07:38;;;;;;;;;;;25.30;38.90;;;24.57;37.91;100833.41;12254931;19;20316;-90
2023/05/23 13:11:40;;;;;;;;;;;25.30;39.00;;;24.53;38.07;100836.63;12254327;19;19923;-89
2023/05/23 13:15:41;;;;;;;;;;;25.30;39.00;;;24.54;37.65;100839.09;12254467;19;19915;-90
2023/05/23 13:19:42;;;;;;;;;;;25.30;39.00;;;24.52;38.28;100838.47;12254119;19;19936;-90
2023/05/23 13:23:44;;;;;;;;;;;25.20;39.40;;;24.38;38.29;100841.81;12256348;19;19926;-89
2023/05/23 13:27:45;;;;;;;;;;;25.20;38.80;;;24.32;38.28;100854.00;12259878;19;19915;-89
2023/05/23 13:31:47;;;;;;;;;;;25.10;38.80;;;24.15;37.94;100829.19;12258138;19;20614;-89
2023/05/23 13:35:49;;;;;;;;;;;25.00;38.90;;;24.00;38.26;100821.03;12256282;19;19919;-89
2023/05/23 13:39:51;;;;;;;;;;;25.00;38.70;;;24.10;38.06;100847.56;12251361;19;20350;-90
2023/05/23 13:43:52;;;;;;;;;;;24.90;38.90;;;24.15;38.24;100857.72;12254850;19;19915;-89
2023/05/23 13:47:54;;;;;;;;;;;24.80;39.00;;;24.12;38.42;100858.91;12252948;19;20242;-89
2023/05/23 13:51:56;;;;;;;;;;;24.80;38.80;;;23.99;38.38;100848.75;12248074;19;19943;-88
2023/05/23 13:55:57;;;;;;;;;;;24.80;39.00;;;23.88;38.12;100853.59;12245766;19;19922;-90
2023/05/23 13:59:59;;;;;;;;;;;24.70;38.80;;;23.90;38.41;100867.59;12242764;19;19927;-89
2023/05/23 14:04:00;;;;;;;;;;;24.70;38.90;;;23.82;38.38;100869.28;12232534;19;20371;-89
2023/05/23 14:08:03;;;;;;;;;;;24.60;39.00;;;23.74;38.34;100876.44;12248730;19;20469;-88
2023/05/23 14:12:04;;;;;;;;;;;24.50;38.90;;;23.42;38.39;100838.06;12248514;19;19939;-90
2023/05/23 14:16:06;;;;;;;;;;;24.40;39.10;;;23.50;38.44;100878.06;12251208;19;20364;-89
2023/05/23 14:20:08;;;;;;;;;;;24.30;39.00;;;23.53;38.48;100892.91;12243443;19;19944;-89
2023/05/23 14:24:10;;;;;;;;;;;24.30;39.40;;;23.49;38.42;100897.72;12253027;19;19911;-88
2023/05/23 14:28:12;;;;;;;;;;;24.20;40.20;;;23.33;38.28;100887.88;12251885;19;20296;-88
2023/05/23 14:32:13;;;;;;;;;;;24.10;39.50;;;23.27;38.71;100888.53;12252026;19;19918;-89
2023/05/23 14:36:15;;;;;;;;;;;24.00;39.50;;;23.15;38.72;100889.84;12249422;19;19910;-88
2023/05/23 14:40:17;;;;;;;;;;;23.90;39.50;;;23.05;38.58;100889.13;12252326;19;20287;-88
2023/05/23 14:44:18;;;;;;;;;;;23.80;39.60;;;23.03;38.83;100901.78;12250498;19;19922;-90
2023/05/23 14:48:20;;;;;;;;;;;23.80;39.60;;;22.97;38.65;100908.59;12249205;19;19915;-90
2023/05/23 14:52:23;;;;;;;;;;;23.70;39.50;;;22.78;38.59;100885.69;12250153;19;20289;-91
2023/05/23 14:56:25;;;;;;;;;;;23.60;39.70;;;22.82;39.01;100904.81;12246646;19;19915;-88
2023/05/23 15:00:27;;;;;;;;;;;23.60;39.80;;;22.66;38.82;100894.97;12250972;19;19974;-89
2023/05/23 15:04:29;;;;;;;;;;;23.50;39.60;;;22.71;39.14;100911.28;12249241;19;19927;-89
2023/05/23 15:08:32;;;;;;;;;;;23.40;39.70;;;22.59;39.17;100905.41;12253050;19;19944;-89
2023/05/23 15:12:33;;;;;;;;;;;23.40;39.80;;;22.58;38.90;100910.91;12248338;19;20366;-89
2023/05/23 15:16:36;;;;;;;;;;;23.30;39.70;;;22.63;38.70;100913.88;12247024;19;19918;-88
2023/05/23 15:20:37;;;;;;;;;;;23.30;40.00;;;22.58;39.23;100913.56;12247903;19;19915;-89
2023/05/23 15:24:39;;;;;;;;;;;23.30;39.90;;;22.32;39.07;100885.13;12240348;19;20326;-88
2023/05/23 15:28:40;;;;;;;;;;;23.20;40.20;;;22.48;38.98;100909.16;12248008;19;19974;-88
2023/05/23 15:32:42;;;;;;;;;;;23.20;40.00;;;22.55;39.31;100930.69;12250543;19;19926;-89
2023/05/23 15:36:43;;;;;;;;;;;23.20;40.30;;;22.43;38.93;100915.97;12247210;19;20249;-89
2023/05/23 15:40:47;;;;;;;;;;;23.20;40.40;;;22.38;39.43;100928.91;12243042;19;19922;-89
2023/05/23 15:44:48;;;;;;;;;;;23.10;40.60;;;22.29;39.33;100936.81;12245081;19;19918;-88
2023/05/23 15:48:50;;;;;;;;;;;23.10;40.50;;;22.10;38.99;100931.66;12247967;19;19930;-87
2023/05/23 15:52:52;;;;;;;;;;;23.00;40.70;;;21.99;39.28;100945.22;12245778;19;19922;-89
2023/05/23 15:56:53;;;;;;;;;;;22.80;40.30;;;21.79;39.59;100945.38;12242493;19;19918;-89
2023/05/23 16:00:55;;;;;;;;;;;22.70;41.50;;;21.64;39.63;100937.09;12245779;19;20055;-89
2023/05/23 16:04:57;;;;;;;;;;;22.50;41.10;;;21.57;39.70;100957.28;12243981;19;19954;-89
2023/05/23 16:08:58;;;;;;;;;;;22.40;40.50;;;21.44;39.78;100954.16;12249358;19;19914;-89
2023/05/23 16:13:00;;;;;;;;;;;22.30;40.40;;;21.36;39.37;100975.28;12243865;19;19919;-89
2023/05/23 16:17:03;;;;;;;;;;;22.10;40.40;;;21.20;39.56;100978.63;12242089;19;19925;-89
2023/05/23 16:21:05;;;;;;;;;;;22.00;40.40;;;21.10;39.70;100977.81;12242038;19;19919;-89
2023/05/23 16:25:09;;;;;;;;;;;21.90;40.40;;;20.86;39.60;100957.94;12242488;19;19915;-88
2023/05/23 16:29:11;;;;;;;;;;;21.70;40.50;;;20.90;39.53;100977.91;12245448;19;19915;-88
2023/05/23 16:33:16;;;;;;;;;;;21.70;40.90;;;20.63;39.96;100965.41;12234833;19;20326;-89
2023/05/23 16:37:17;;;;;;;;;;;21.50;40.70;;;20.62;40.05;100973.50;12249879;19;19919;-88
2023/05/23 16:41:19;;;;;;;;;;;21.40;41.00;;;20.47;39.76;100979.25;12251204;19;19923;-89
2023/05/23 16:45:21;;;;;;;;;;;21.30;41.00;;;20.52;40.06;101002.69;12255849;19;19958;-89
2023/05/23 16:49:23;;;;;;;;;;;21.30;40.70;;;20.44;40.02;101007.88;12254794;19;19911;-89
2023/05/23 16:53:24;;;;;;;;;;;21.10;40.60;;;20.37;39.83;101014.72;12252791;19;19943;-89
2023/05/23 16:57:26;;;;;;;;;;;21.10;41.10;;;20.13;40.24;101010.69;12257634;19;20332;-89
2023/05/23 17:01:28;;;;;;;;;;;21.00;41.30;;;20.05;40.16;101018.50;12251691;19;19927;-89
2023/05/23 17:05:30;;;;;;;;;;;20.90;40.70;;;20.02;40.08;101045.28;12252935;19;19961;-88
2023/05/23 17:09:31;;;;;;;;;;;20.80;40.60;;;19.76;39.97;101023.78;12256670;19;19930;-89
2023/05/23 17:13:33;;;;;;;;;;;20.70;41.20;;;19.63;40.10;101024.84;12256514;19;20246;-89
2023/05/23 17:17:35;;;;;;;;;;;20.60;41.30;;;19.57;40.24;101037.78;12254591;19;19922;-87
2023/05/23 17:21:36;;;;;;;;;;;20.40;41.40;;;19.29;40.39;101032.25;12256628;19;19922;-89
2023/05/23 17:25:38;;;;;;;;;;;20.30;41.90;;;19.29;40.51;101050.81;12252300;19;20311;-88
2023/05/23 17:29:39;;;;;;;;;;;20.20;41.40;;;19.17;40.46;101051.84;12256997;19;19918;-89
2023/05/23 17:33:41;;;;;;;;;;;20.10;42.20;;;19.12;40.69;101072.59;12246579;19;20442;-88
2023/05/23 17:37:43;;;;;;;;;;;19.90;42.30;;;18.82;40.49;101049.56;12252064;19;19915;-89
2023/05/23 17:41:45;;;;;;;;;;;19.80;42.00;;;18.90;40.93;101094.75;12252973;19;19915;-89
2023/05/23 17:45:46;;;;;;;;;;;19.70;41.70;;;18.74;40.81;101081.94;12249740;19;19984;-89
2023/05/23 17:49:47;;;;;;;;;;;19.60;42.90;;;18.70;40.87;101107.00;12251816;19;19917;-88
2023/05/23 17:53:52;;;;;;;;;;;19.50;42.70;;;18.35;40.96;101069.25;12251180;19;19923;-90
2023/05/23 17:57:53;;;;;;;;;;;19.50;42.30;;;18.58;40.64;101114.97;12249115;19;19930;-88
2023/05/23 18:01:55;;;;;;;;;;;19.40;42.50;;;18.27;40.87;101084.09;12244982;19;19929;-89
2023/05/23 18:05:56;;;;;;;;;;;19.30;42.30;;;18.36;40.94;101101.84;12243865;19;19932;-88
2023/05/23 18:09:58;;;;;;;;;;;19.20;44.30;;;18.23;40.95;101098.53;12254964;19;19915;-89
2023/05/23 18:14:00;;;;;;;;;;;19.10;42.60;;;18.12;41.01;101108.19;12249019;19;19915;-88